Time;durP1;ratioP1;P1;durP2;ratioP2;P2;SDS_P1;SDS_P2;PMS_P1;PMS_P2;Temp;Humidity;BMP_temperature;BMP_pressure;BME280_temperature;BME280_humidity;BME280_pressure;Samples;Min_cycle;Max_cycle;Signal;HPM_P1;HPM_P2
2022/05/07 00:02:16;;;;;;;10.67;6.43;;;12.00;99.90;;;;;;6287384;22;20435;-87
2022/05/07 00:04:44;;;;;;;8.33;5.87;;;12.00;99.90;;;;;;6286902;22;20438;-87
2022/05/07 00:07:11;;;;;;;7.97;6.20;;;11.90;99.90;;;;;;6286518;22;20366;-87
2022/05/07 00:09:38;;;;;;;8.93;6.40;;;11.90;99.90;;;;;;6291976;22;20388;-87
2022/05/07 00:12:07;;;;;;;7.20;5.90;;;12.00;99.90;;;;;;6289031;22;20403;-87
2022/05/07 00:14:34;;;;;;;7.60;5.93;;;12.00;99.90;;;;;;6285678;22;20494;-87
2022/05/07 00:19:47;;;;;;;9.13;6.37;;;11.90;99.90;;;;;;6286038;22;20382;-87
2022/05/07 00:22:14;;;;;;;10.37;5.70;;;11.90;99.90;;;;;;6286472;22;20510;-89
2022/05/07 00:24:44;;;;;;;8.10;6.40;;;11.80;99.90;;;;;;6286646;22;20754;-86
2022/05/07 00:27:13;;;;;;;8.80;5.77;;;11.80;99.90;;;;;;6286587;22;20490;-86
2022/05/07 00:29:40;;;;;;;13.63;6.40;;;11.80;99.90;;;;;;6285594;22;20487;-87
2022/05/07 00:32:08;;;;;;;7.80;5.87;;;11.80;99.90;;;;;;6285863;22;20922;-87
2022/05/07 00:34:35;;;;;;;8.40;6.07;;;11.80;99.90;;;;;;6287398;22;20954;-86
2022/05/07 00:37:04;;;;;;;10.10;5.50;;;11.70;99.90;;;;;;6288224;22;20432;-86
2022/05/07 00:39:30;;;;;;;8.23;5.60;;;11.60;99.90;;;;;;6287710;22;20490;-86
2022/05/07 00:42:03;;;;;;;8.30;5.40;;;11.70;99.90;;;;;;6289491;22;20449;-86
2022/05/07 00:44:29;;;;;;;11.60;6.07;;;11.70;99.90;;;;;;6290261;22;20702;-86
2022/05/07 00:47:07;;;;;;;7.33;6.00;;;11.60;99.90;;;;;;6287386;22;20437;-86
2022/05/07 00:49:35;;;;;;;8.73;6.23;;;11.60;99.90;;;;;;6286402;22;20378;-86
2022/05/07 00:52:03;;;;;;;7.60;6.00;;;11.60;99.90;;;;;;6287304;22;20423;-86
2022/05/07 00:54:30;;;;;;;8.30;6.67;;;11.50;99.90;;;;;;6297714;22;20427;-87
2022/05/07 00:56:56;;;;;;;7.10;5.70;;;11.50;99.90;;;;;;6301053;22;20474;-87
2022/05/07 00:59:24;;;;;;;10.50;6.67;;;11.40;99.90;;;;;;6296712;22;20436;-86
2022/05/07 01:01:51;;;;;;;9.73;6.60;;;11.50;99.90;;;;;;6293227;22;20479;-86
2022/05/07 01:04:17;;;;;;;7.80;6.13;;;11.40;99.90;;;;;;6300374;22;20391;-86
2022/05/07 01:06:45;;;;;;;10.13;6.80;;;11.40;99.90;;;;;;6294263;22;20426;-88
2022/05/07 01:09:13;;;;;;;8.30;5.50;;;11.40;99.90;;;;;;6293057;22;20404;-88
2022/05/07 01:11:41;;;;;;;9.20;6.30;;;11.30;99.90;;;;;;6294041;22;20447;-86
2022/05/07 01:14:08;;;;;;;7.80;6.30;;;11.30;99.90;;;;;;6290699;22;20408;-87
2022/05/07 01:16:35;;;;;;;8.00;5.00;;;11.30;99.90;;;;;;6287468;22;20403;-86
2022/05/07 01:19:01;;;;;;;10.27;6.30;;;11.30;99.90;;;;;;6286795;22;20442;-87
2022/05/07 01:21:30;;;;;;;7.10;5.80;;;11.20;99.90;;;;;;6278169;22;20452;-87
2022/05/07 01:23:57;;;;;;;10.03;6.53;;;11.20;99.90;;;;;;6258927;23;20409;-87
2022/05/07 01:26:24;;;;;;;10.87;6.30;;;11.20;99.90;;;;;;6250736;23;20436;-87
2022/05/07 01:28:52;;;;;;;9.27;6.40;;;11.10;99.90;;;;;;6269364;23;20382;-87
2022/05/07 01:31:19;;;;;;;7.73;6.13;;;11.00;99.90;;;;;;6264160;22;20430;-87
2022/05/07 01:33:46;;;;;;;11.20;6.20;;;11.00;99.90;;;;;;6256662;23;20496;-87
2022/05/07 01:36:16;;;;;;;10.03;6.80;;;11.00;99.90;;;;;;6258606;23;20400;-87
2022/05/07 01:38:44;;;;;;;8.20;6.50;;;10.80;99.90;;;;;;6256607;23;20416;-87
2022/05/07 01:41:11;;;;;;;11.83;7.30;;;10.80;99.90;;;;;;6250907;23;20428;-87
2022/05/07 01:43:38;;;;;;;8.20;6.10;;;10.80;99.90;;;;;;6249458;23;20531;-88
2022/05/07 01:48:09;;;;;;;7.83;6.00;;;10.80;99.90;;;;;;6248799;23;20454;-87
2022/05/07 01:48:52;;;;;;;7.20;5.53;;;10.80;99.90;;;;;;6248339;23;20411;-87
2022/05/07 01:51:19;;;;;;;9.03;5.57;;;10.90;99.90;;;;;;6250511;23;20491;-87
2022/05/07 01:53:47;;;;;;;8.37;5.90;;;10.90;99.90;;;;;;6256692;22;20409;-88
2022/05/07 01:56:14;;;;;;;6.80;5.23;;;10.80;99.90;;;;;;6254471;23;20416;-87
2022/05/07 01:58:41;;;;;;;8.70;5.90;;;10.70;99.90;;;;;;6252952;23;20408;-87
2022/05/07 02:01:10;;;;;;;10.93;5.90;;;10.70;99.90;;;;;;6250984;23;20432;-87
2022/05/07 02:03:38;;;;;;;9.80;5.87;;;10.70;99.90;;;;;;6249552;23;20523;-87
2022/05/07 02:06:05;;;;;;;7.80;5.80;;;10.70;99.90;;;;;;6249026;22;20430;-87
2022/05/07 02:08:32;;;;;;;7.33;5.67;;;10.60;99.90;;;;;;6259848;22;20433;-87
2022/05/07 02:11:01;;;;;;;10.87;5.90;;;10.70;99.90;;;;;;6272427;22;20433;-87
2022/05/07 02:13:28;;;;;;;9.80;6.70;;;10.70;99.90;;;;;;6255786;22;20470;-87
2022/05/07 02:15:55;;;;;;;7.80;5.80;;;10.70;99.90;;;;;;6249031;23;20734;-87
2022/05/07 02:18:22;;;;;;;7.50;6.40;;;10.60;99.90;;;;;;6248783;23;20507;-87
2022/05/07 02:20:49;;;;;;;7.43;6.30;;;10.60;99.90;;;;;;6249521;23;20519;-87
2022/05/07 02:23:18;;;;;;;8.00;6.07;;;10.60;99.90;;;;;;6262664;23;20492;-87
2022/05/07 02:25:45;;;;;;;8.83;6.10;;;10.60;99.90;;;;;;6256939;23;20435;-86
2022/05/07 02:28:14;;;;;;;7.77;5.40;;;10.70;99.90;;;;;;6252290;23;20397;-87
2022/05/07 02:30:41;;;;;;;10.67;5.93;;;10.70;99.90;;;;;;6261158;23;20486;-86
2022/05/07 02:33:08;;;;;;;8.03;5.80;;;10.70;99.90;;;;;;6261514;23;20427;-87
2022/05/07 02:35:35;;;;;;;7.37;5.83;;;10.60;99.90;;;;;;6260389;23;20411;-87
2022/05/07 02:38:02;;;;;;;10.27;5.40;;;10.50;99.90;;;;;;6261645;23;20460;-87
2022/05/07 02:40:28;;;;;;;7.67;5.17;;;10.40;99.90;;;;;;6254743;23;20462;-87
2022/05/07 02:42:54;;;;;;;8.07;5.70;;;10.30;99.90;;;;;;6254910;23;20507;-87
2022/05/07 02:45:22;;;;;;;8.00;5.77;;;10.30;99.90;;;;;;6248407;23;20260;-87
2022/05/07 02:47:49;;;;;;;7.73;6.20;;;10.30;99.90;;;;;;6248654;23;20591;-87
2022/05/07 02:50:16;;;;;;;9.57;5.97;;;10.40;99.90;;;;;;6252979;23;20441;-87
2022/05/07 02:52:43;;;;;;;10.03;5.80;;;10.30;99.90;;;;;;6250957;23;20408;-88
2022/05/07 02:55:11;;;;;;;7.47;5.70;;;10.20;99.90;;;;;;6248666;23;20409;-89
2022/05/07 02:57:37;;;;;;;9.83;6.27;;;10.20;99.90;;;;;;6247915;23;20408;-88
2022/05/07 03:00:06;;;;;;;8.70;5.80;;;10.20;99.90;;;;;;6257094;23;20435;-87
2022/05/07 03:02:34;;;;;;;9.50;6.07;;;10.30;99.90;;;;;;6261559;23;20444;-87
2022/05/07 03:05:01;;;;;;;7.10;5.90;;;10.20;99.90;;;;;;6249033;23;20411;-87
2022/05/07 03:07:28;;;;;;;8.63;5.97;;;10.20;99.90;;;;;;6248416;23;20498;-87
2022/05/07 03:09:55;;;;;;;11.87;6.53;;;10.20;99.90;;;;;;6247646;23;20404;-87
2022/05/07 03:12:23;;;;;;;7.67;5.63;;;10.10;99.90;;;;;;6247561;23;20770;-87
2022/05/07 03:14:50;;;;;;;8.50;5.83;;;10.10;99.90;;;;;;6247329;23;20499;-87
2022/05/07 03:17:17;;;;;;;10.40;5.90;;;10.10;99.90;;;;;;6246850;23;20953;-87
2022/05/07 03:19:45;;;;;;;7.47;5.93;;;10.10;99.90;;;;;;6247844;23;20487;-88
2022/05/07 03:22:12;;;;;;;7.97;5.90;;;10.00;99.90;;;;;;6257434;23;20432;-87
2022/05/07 03:24:40;;;;;;;7.73;5.80;;;10.00;99.90;;;;;;6271757;23;20883;-87
2022/05/07 03:27:07;;;;;;;9.20;5.83;;;10.00;99.90;;;;;;6271817;22;20404;-87
2022/05/07 03:29:34;;;;;;;8.60;5.93;;;10.00;99.90;;;;;;6270724;23;20388;-87
2022/05/07 03:32:01;;;;;;;7.23;5.37;;;10.00;99.90;;;;;;6271266;23;20446;-87
2022/05/07 03:34:28;;;;;;;7.00;5.70;;;10.10;99.90;;;;;;6254137;23;20806;-87
2022/05/07 03:36:56;;;;;;;7.57;6.00;;;10.00;99.90;;;;;;6251143;23;20471;-87
2022/05/07 03:39:24;;;;;;;8.90;5.77;;;10.00;99.90;;;;;;6250151;23;20213;-87
2022/05/07 03:41:50;;;;;;;7.53;5.53;;;10.00;99.90;;;;;;6248405;23;20420;-87
2022/05/07 03:44:17;;;;;;;10.73;4.93;;;10.00;99.90;;;;;;6249883;23;20236;-87
2022/05/07 03:46:44;;;;;;;7.90;6.00;;;10.00;99.90;;;;;;6249300;23;20427;-86
2022/05/07 03:49:11;;;;;;;6.80;5.57;;;10.00;99.90;;;;;;6249568;23;20797;-87
2022/05/07 03:54:20;;;;;;;8.40;6.33;;;9.90;99.90;;;;;;6247430;23;20395;-86
2022/05/07 03:56:47;;;;;;;9.43;6.63;;;9.80;99.90;;;;;;6248886;23;20411;-87
2022/05/07 03:59:14;;;;;;;7.90;6.00;;;9.80;99.90;;;;;;6248738;23;20440;-88
2022/05/07 04:01:40;;;;;;;10.77;6.07;;;9.80;99.90;;;;;;6248735;23;20416;-87
2022/05/07 04:04:07;;;;;;;7.13;5.60;;;9.80;99.90;;;;;;6257421;23;20472;-87
2022/05/07 04:06:34;;;;;;;7.00;5.63;;;9.80;99.90;;;;;;6259331;23;20413;-87
2022/05/07 04:09:01;;;;;;;9.10;6.47;;;9.80;99.90;;;;;;6253136;23;20949;-88
2022/05/07 04:11:29;;;;;;;9.53;5.90;;;9.80;99.90;;;;;;6249280;23;20943;-87
2022/05/07 04:13:56;;;;;;;6.80;5.40;;;9.80;99.90;;;;;;6249979;23;20444;-88
2022/05/07 04:16:23;;;;;;;7.33;5.83;;;9.80;99.90;;;;;;6253338;23;20436;-88
2022/05/07 04:18:50;;;;;;;8.67;5.90;;;9.80;99.90;;;;;;6251510;23;20409;-87
2022/05/07 04:21:17;;;;;;;11.82;5.90;;;9.70;99.90;;;;;;6249149;23;20452;-87
2022/05/07 04:23:43;;;;;;;9.87;5.47;;;9.80;99.90;;;;;;6248099;23;20537;-87
2022/05/07 04:26:11;;;;;;;8.37;6.00;;;9.80;99.90;;;;;;6247604;23;20435;-87
2022/05/07 04:28:40;;;;;;;6.77;5.20;;;9.80;99.90;;;;;;6249048;23;20466;-88
2022/05/07 04:31:07;;;;;;;7.73;5.67;;;9.80;99.90;;;;;;6261057;23;20473;-87
2022/05/07 04:33:33;;;;;;;8.55;5.80;;;9.80;99.90;;;;;;6269503;22;20415;-87
2022/05/07 04:36:00;;;;;;;9.60;6.50;;;9.80;99.90;;;;;;6259287;23;20216;-87
2022/05/07 04:38:27;;;;;;;7.93;5.50;;;9.90;99.90;;;;;;6251294;23;20387;-87
2022/05/07 04:40:55;;;;;;;7.50;5.47;;;9.90;99.90;;;;;;6251280;23;20460;-87
2022/05/07 04:43:21;;;;;;;7.20;5.10;;;9.90;99.90;;;;;;6250437;23;20440;-87
2022/05/07 04:45:50;;;;;;;7.60;5.27;;;9.90;99.90;;;;;;6252498;23;20416;-86
2022/05/07 04:48:17;;;;;;;9.97;5.80;;;9.90;99.90;;;;;;6272116;22;20438;-87
2022/05/07 04:50:43;;;;;;;8.53;6.10;;;9.90;99.90;;;;;;6271651;23;20428;-88
2022/05/07 04:53:10;;;;;;;7.27;5.77;;;9.90;99.90;;;;;;6252082;23;20487;-88
2022/05/07 04:55:37;;;;;;;7.40;6.30;;;9.90;99.90;;;;;;6247929;23;20387;-87
2022/05/07 04:58:04;;;;;;;11.60;6.37;;;10.00;99.90;;;;;;6247826;23;20467;-88
2022/05/07 05:00:31;;;;;;;9.53;6.50;;;10.10;99.90;;;;;;6248110;23;20499;-88
2022/05/07 05:02:59;;;;;;;8.48;6.15;;;10.10;99.90;;;;;;6249513;23;20440;-88
2022/05/07 05:05:26;;;;;;;8.30;5.43;;;10.10;99.90;;;;;;6248919;23;20198;-88
2022/05/07 05:07:55;;;;;;;10.00;6.40;;;10.20;99.90;;;;;;6256329;23;20412;-88
2022/05/07 05:10:24;;;;;;;8.57;6.30;;;10.20;99.90;;;;;;6252152;23;20487;-88
2022/05/07 05:12:51;;;;;;;8.50;6.10;;;10.20;99.90;;;;;;6251488;23;20440;-88
2022/05/07 05:15:18;;;;;;;7.40;5.80;;;10.30;99.90;;;;;;6250427;23;20412;-88
2022/05/07 05:17:46;;;;;;;8.37;6.00;;;10.40;99.90;;;;;;6253527;23;20420;-88
2022/05/07 05:20:15;;;;;;;13.93;6.70;;;10.50;99.90;;;;;;6248715;23;20420;-88
2022/05/07 05:22:47;;;;;;;10.40;5.97;;;10.50;99.90;;;;;;6248417;23;20903;-88
2022/05/07 05:25:15;;;;;;;9.53;6.00;;;10.60;99.90;;;;;;6251765;23;20400;-88
2022/05/07 05:27:42;;;;;;;8.80;5.90;;;10.60;99.90;;;;;;6247076;23;20416;-87
2022/05/07 05:30:10;;;;;;;12.50;6.63;;;10.70;99.90;;;;;;6248423;23;20462;-87
2022/05/07 05:32:36;;;;;;;8.07;6.20;;;10.80;99.90;;;;;;6252618;23;20433;-87
2022/05/07 05:35:04;;;;;;;8.27;6.30;;;10.80;99.90;;;;;;6250393;23;20428;-87
2022/05/07 05:37:32;;;;;;;9.20;6.70;;;10.90;99.90;;;;;;6247852;23;20416;-88
2022/05/07 05:39:59;;;;;;;8.10;5.50;;;11.00;99.90;;;;;;6247276;23;20503;-88
2022/05/07 05:42:26;;;;;;;6.83;5.57;;;11.10;99.90;;;;;;6247036;23;20482;-88
2022/05/07 05:44:53;;;;;;;8.83;5.60;;;11.20;99.90;;;;;;6247860;23;20814;-87
2022/05/07 05:47:19;;;;;;;9.97;6.27;;;11.30;99.90;;;;;;6247947;23;20447;-87
2022/05/07 05:49:46;;;;;;;8.50;5.77;;;11.40;99.90;;;;;;6248137;23;20499;-87
2022/05/07 05:52:13;;;;;;;8.60;6.33;;;11.40;99.90;;;;;;6248360;23;20433;-87
2022/05/07 05:54:41;;;;;;;7.87;6.10;;;11.40;99.90;;;;;;6251760;23;20403;-87
2022/05/07 05:57:08;;;;;;;21.73;6.70;;;11.50;99.90;;;;;;6255319;23;20409;-87
2022/05/07 05:59:35;;;;;;;11.90;7.27;;;11.60;99.90;;;;;;6248082;23;20901;-87
2022/05/07 06:02:02;;;;;;;8.87;6.77;;;11.70;99.90;;;;;;6247395;23;20435;-87
2022/05/07 06:04:29;;;;;;;9.93;7.07;;;11.80;99.90;;;;;;6246565;23;20441;-87
2022/05/07 06:06:56;;;;;;;8.90;7.20;;;11.80;99.90;;;;;;6259577;22;20457;-86
2022/05/07 06:09:23;;;;;;;8.70;7.00;;;11.90;99.90;;;;;;6259641;22;20427;-87
2022/05/07 06:11:52;;;;;;;8.73;7.07;;;12.10;99.90;;;;;;6272079;22;20415;-86
2022/05/07 06:14:19;;;;;;;10.60;7.40;;;12.20;99.90;;;;;;6269271;22;20428;-87
2022/05/07 06:16:46;;;;;;;8.80;7.07;;;12.30;99.90;;;;;;6270046;23;20414;-87
2022/05/07 06:19:12;;;;;;;13.67;7.37;;;12.40;99.90;;;;;;6270731;22;20382;-87
2022/05/07 06:21:39;;;;;;;9.50;8.10;;;12.40;99.90;;;;;;6270640;22;20444;-87
2022/05/07 06:29:37;;;;;;;12.67;8.30;;;12.70;99.90;;;;;;6272038;22;20392;-87
2022/05/07 06:32:04;;;;;;;12.40;8.83;;;12.80;99.90;;;;;;6271927;22;20422;-88
2022/05/07 06:34:33;;;;;;;13.00;9.23;;;12.90;99.90;;;;;;6271809;22;20383;-87
2022/05/07 06:37:01;;;;;;;17.83;10.27;;;12.90;99.90;;;;;;6270952;22;20379;-88
2022/05/07 06:39:28;;;;;;;13.00;9.43;;;13.00;99.90;;;;;;6262936;23;20387;-88
2022/05/07 06:41:56;;;;;;;11.57;9.63;;;13.10;99.90;;;;;;6263706;23;20448;-88
2022/05/07 06:44:23;;;;;;;11.00;9.60;;;13.30;99.90;;;;;;6264343;23;20449;-88
2022/05/07 06:46:50;;;;;;;12.80;9.83;;;13.40;99.90;;;;;;6262057;23;20391;-88
2022/05/07 06:49:18;;;;;;;16.07;10.70;;;13.50;99.90;;;;;;6262943;22;20464;-87
2022/05/07 06:51:46;;;;;;;15.90;10.53;;;13.70;99.90;;;;;;6264169;23;20501;-87
2022/05/07 06:54:13;;;;;;;21.83;12.50;;;13.80;99.90;;;;;;6254538;23;20444;-88
2022/05/07 06:56:43;;;;;;;13.13;10.70;;;13.70;99.90;;;;;;6249496;23;20468;-88
2022/05/07 06:59:11;;;;;;;12.20;10.27;;;13.90;99.90;;;;;;6247837;23;20412;-88
2022/05/07 07:01:39;;;;;;;17.93;12.13;;;13.90;99.90;;;;;;6248123;23;20511;-89
2022/05/07 07:04:06;;;;;;;12.50;9.77;;;13.90;99.90;;;;;;6248139;23;20423;-88
2022/05/07 07:06:33;;;;;;;12.57;11.03;;;14.10;99.90;;;;;;6248913;23;20846;-87
2022/05/07 07:09:00;;;;;;;13.10;10.20;;;14.10;99.90;;;;;;6250777;23;20886;-88
2022/05/07 07:11:27;;;;;;;16.23;9.70;;;14.20;99.90;;;;;;6249010;23;20593;-87
2022/05/07 07:13:53;;;;;;;14.90;10.70;;;14.30;99.90;;;;;;6250708;23;20437;-88
2022/05/07 07:16:22;;;;;;;14.97;11.03;;;14.40;99.90;;;;;;6250475;23;20743;-88
2022/05/07 07:18:49;;;;;;;12.10;10.63;;;14.60;99.90;;;;;;6250307;23;20773;-87
2022/05/07 07:23:45;;;;;;;21.57;11.33;;;15.00;99.90;;;;;;6288636;22;20410;-86
2022/05/07 07:26:12;;;;;;;12.63;11.10;;;15.00;99.90;;;;;;6288060;22;20428;-86
2022/05/07 07:28:39;;;;;;;14.23;11.77;;;15.00;99.90;;;;;;6292738;22;20403;-88
2022/05/07 07:31:06;;;;;;;18.30;11.60;;;15.00;99.90;;;;;;6299563;22;20406;-87
2022/05/07 07:33:34;;;;;;;16.23;11.80;;;14.90;99.90;;;;;;6265900;22;20407;-88
2022/05/07 07:36:04;;;;;;;18.97;12.33;;;15.00;99.90;;;;;;6259285;22;20371;-86
2022/05/07 07:38:31;;;;;;;16.43;11.90;;;15.10;99.90;;;;;;6264457;22;20404;-86
2022/05/07 07:40:58;;;;;;;12.03;10.20;;;15.20;99.90;;;;;;6261341;23;20477;-86
2022/05/07 07:43:25;;;;;;;12.27;10.97;;;15.50;99.90;;;;;;6257460;22;20443;-85
2022/05/07 07:48:39;;;;;;;16.63;9.97;;;15.70;99.90;;;;;;6256046;23;20354;-87
2022/05/07 07:51:07;;;;;;;12.40;9.43;;;15.80;99.90;;;;;;6256550;22;20395;-85
2022/05/07 07:53:36;;;;;;;12.93;9.57;;;15.80;99.90;;;;;;6261331;22;20476;-86
2022/05/07 07:56:04;;;;;;;15.53;9.40;;;15.90;99.90;;;;;;6261502;23;20394;-87
2022/05/07 07:58:31;;;;;;;11.50;7.90;;;15.90;99.90;;;;;;6264307;23;20415;-85
2022/05/07 08:00:58;;;;;;;10.80;8.40;;;16.00;99.90;;;;;;6261275;22;20404;-86
2022/05/07 08:03:25;;;;;;;11.67;9.37;;;15.90;99.90;;;;;;6261076;22;20443;-87
2022/05/07 08:05:54;;;;;;;15.10;9.80;;;16.00;99.90;;;;;;6258245;23;20408;-87
2022/05/07 08:13:53;;;;;;;14.47;10.70;;;15.90;99.90;;;;;;6257152;23;20857;-86
2022/05/07 08:16:20;;;;;;;12.00;8.67;;;16.10;99.90;;;;;;6257120;22;20390;-86
2022/05/07 08:18:49;;;;;;;17.53;11.00;;;16.20;99.90;;;;;;6255836;23;20412;-86
2022/05/07 08:21:18;;;;;;;15.70;11.30;;;16.30;99.90;;;;;;6259012;22;20787;-87
2022/05/07 08:23:45;;;;;;;13.70;9.90;;;16.40;99.90;;;;;;6260850;22;20426;-88
2022/05/07 08:26:12;;;;;;;12.93;10.90;;;16.50;99.90;;;;;;6260306;22;20413;-88
2022/05/07 08:28:40;;;;;;;12.50;10.70;;;16.60;99.90;;;;;;6259809;22;20390;-86
2022/05/07 08:31:07;;;;;;;15.60;13.00;;;16.80;99.90;;;;;;6257549;22;20391;-86
2022/05/07 08:33:35;;;;;;;13.90;11.57;;;16.90;99.90;;;;;;6257658;22;20383;-86
2022/05/07 08:36:03;;;;;;;13.97;11.93;;;16.80;99.90;;;;;;6259082;23;20421;-86
2022/05/07 08:38:31;;;;;;;14.53;12.20;;;16.70;99.90;;;;;;6260028;22;20402;-86
2022/05/07 08:40:59;;;;;;;15.30;12.60;;;16.60;99.90;;;;;;6262957;23;20384;-86
2022/05/07 08:43:26;;;;;;;12.47;11.17;;;16.70;99.90;;;;;;6262427;22;20456;-88
2022/05/07 08:45:53;;;;;;;15.17;12.60;;;16.80;99.90;;;;;;6260834;23;20444;-86
2022/05/07 08:48:20;;;;;;;15.87;12.70;;;17.00;99.90;;;;;;6263060;23;20401;-85
2022/05/07 08:50:49;;;;;;;13.80;11.77;;;17.10;99.90;;;;;;6270825;22;20405;-85
2022/05/07 08:53:16;;;;;;;15.80;13.00;;;17.20;99.90;;;;;;6259817;22;20423;-86
2022/05/07 08:55:44;;;;;;;15.90;12.77;;;17.20;99.90;;;;;;6257194;22;20428;-87
2022/05/07 08:58:11;;;;;;;16.33;13.80;;;17.30;99.90;;;;;;6258554;22;20467;-86
2022/05/07 09:00:39;;;;;;;18.10;13.47;;;17.30;99.90;;;;;;6263171;22;20393;-85
2022/05/07 09:03:06;;;;;;;14.80;12.83;;;17.40;99.90;;;;;;6263669;22;20502;-86
2022/05/07 09:05:35;;;;;;;20.00;15.07;;;17.50;99.90;;;;;;6267807;22;20463;-84
2022/05/07 09:08:03;;;;;;;16.60;14.80;;;17.60;99.90;;;;;;6261180;23;20397;-87
2022/05/07 09:10:32;;;;;;;14.63;13.07;;;17.80;99.90;;;;;;6260007;22;20404;-86
2022/05/07 09:13:13;;;;;;;16.03;13.40;;;18.00;99.90;;;;;;6258852;22;20441;-87
2022/05/07 09:15:51;;;;;;;15.40;13.33;;;18.10;99.90;;;;;;6257364;23;20398;-88
2022/05/07 09:18:20;;;;;;;16.37;13.40;;;18.20;99.90;;;;;;6264795;23;20404;-88
2022/05/07 09:21:16;;;;;;;14.63;12.00;;;18.20;99.90;;;;;;6257291;22;20492;-87
2022/05/07 09:23:46;;;;;;;13.00;11.03;;;18.30;99.90;;;;;;6255213;23;20451;-88
2022/05/07 09:26:24;;;;;;;10.53;9.40;;;18.20;99.90;;;;;;6255684;23;20751;-88
2022/05/07 09:28:52;;;;;;;11.80;9.03;;;18.20;99.90;;;;;;6255816;23;20419;-87
2022/05/07 09:31:26;;;;;;;13.17;9.73;;;18.30;99.80;;;;;;6253769;22;20413;-88
2022/05/07 09:33:53;;;;;;;10.90;9.10;;;18.30;99.90;;;;;;6253647;23;20476;-87
2022/05/07 09:36:19;;;;;;;13.10;8.70;;;18.40;99.80;;;;;;6254984;23;20448;-88
2022/05/07 09:38:48;;;;;;;12.80;8.03;;;18.40;98.80;;;;;;6254965;23;20554;-89
2022/05/07 09:41:21;;;;;;;9.53;6.60;;;18.60;98.30;;;;;;6253019;22;20395;-89
2022/05/07 09:43:52;;;;;;;8.27;6.00;;;18.70;96.00;;;;;;6255224;23;20412;-87
2022/05/07 09:46:19;;;;;;;8.97;6.60;;;18.60;95.40;;;;;;6254598;23;20385;-88
2022/05/07 09:48:47;;;;;;;8.53;6.20;;;18.40;96.10;;;;;;6256084;23;20396;-87
2022/05/07 09:51:14;;;;;;;7.20;5.20;;;18.40;96.30;;;;;;6262324;22;20440;-87
2022/05/07 09:59:16;;;;;;;8.13;3.80;;;18.80;94.90;;;;;;6268183;23;20384;-89
2022/05/07 10:02:04;;;;;;;7.90;3.23;;;18.90;90.50;;;;;;6262912;22;20436;-88
2022/05/07 10:04:45;;;;;;;5.67;3.20;;;19.00;86.70;;;;;;6254660;23;20402;-90
2022/05/07 10:07:41;;;;;;;9.90;4.03;;;19.20;87.40;;;;;;6255768;23;20827;-90
2022/05/07 10:10:25;;;;;;;7.13;4.07;;;19.40;87.50;;;;;;6254392;23;20530;-87
2022/05/07 10:12:54;;;;;;;4.77;2.87;;;19.20;87.50;;;;;;6260234;22;20413;-88
2022/05/07 10:15:25;;;;;;;4.90;2.63;;;19.30;86.50;;;;;;6267538;23;20411;-88
2022/05/07 10:18:01;;;;;;;4.50;3.00;;;19.40;78.70;;;;;;6264634;23;20416;-87
2022/05/07 10:20:37;;;;;;;7.63;3.43;;;19.40;77.70;;;;;;6259821;23;20370;-88
2022/05/07 10:23:06;;;;;;;7.43;3.50;;;19.50;79.30;;;;;;6258235;22;20428;-88
2022/05/07 10:25:36;;;;;;;4.73;3.20;;;19.60;81.00;;;;;;6258813;23;20762;-88
2022/05/07 10:28:11;;;;;;;5.80;3.37;;;19.50;81.70;;;;;;6256576;23;20896;-88
2022/05/07 10:30:50;;;;;;;6.00;3.63;;;19.60;80.10;;;;;;6263241;23;20401;-86
2022/05/07 10:33:19;;;;;;;7.50;3.00;;;19.60;80.10;;;;;;6259876;22;20428;-86
2022/05/07 10:35:49;;;;;;;4.60;3.10;;;19.70;80.20;;;;;;6260143;23;20428;-87
2022/05/07 10:38:18;;;;;;;6.60;4.00;;;19.90;79.60;;;;;;6258432;23;20411;-87
2022/05/07 10:40:52;;;;;;;7.70;3.50;;;19.80;81.30;;;;;;6257986;23;20780;-86
2022/05/07 10:43:28;;;;;;;6.70;3.30;;;19.70;77.30;;;;;;6256987;22;20446;-86
2022/05/07 10:46:03;;;;;;;7.53;3.20;;;19.70;75.50;;;;;;6257834;23;20462;-86
2022/05/07 10:48:30;;;;;;;6.67;3.57;;;19.60;76.40;;;;;;6256492;23;20491;-86
2022/05/07 10:51:05;;;;;;;9.40;4.73;;;19.50;78.10;;;;;;6258260;23;20431;-88
2022/05/07 10:53:40;;;;;;;9.83;4.30;;;19.40;81.50;;;;;;6259894;23;20501;-88
2022/05/07 10:56:16;;;;;;;5.90;4.13;;;19.40;84.30;;;;;;6259217;23;20489;-86
2022/05/07 10:58:53;;;;;;;8.63;5.40;;;19.50;85.70;;;;;;6257965;23;20449;-88
2022/05/07 11:01:25;;;;;;;14.47;7.67;;;19.80;85.60;;;;;;6256706;22;20427;-87
2022/05/07 11:04:05;;;;;;;13.53;5.10;;;20.00;85.70;;;;;;6258925;23;20464;-86
2022/05/07 11:06:32;;;;;;;9.53;4.57;;;20.10;84.60;;;;;;6257834;23;20794;-87
2022/05/07 11:09:00;;;;;;;7.17;4.57;;;19.90;84.30;;;;;;6258244;23;20436;-86
2022/05/07 11:11:27;;;;;;;8.23;4.77;;;19.90;84.00;;;;;;6259756;22;20391;-86
2022/05/07 11:13:55;;;;;;;5.57;4.50;;;20.00;83.80;;;;;;6257624;23;20404;-87
2022/05/07 11:16:25;;;;;;;6.50;5.10;;;20.10;83.70;;;;;;6260927;23;20519;-87
2022/05/07 11:18:54;;;;;;;5.90;3.43;;;20.10;84.20;;;;;;6264815;23;20395;-86
2022/05/07 11:21:22;;;;;;;9.87;4.30;;;19.80;84.00;;;;;;6263586;22;20379;-86
2022/05/07 11:23:54;;;;;;;5.67;3.80;;;19.70;83.90;;;;;;6261400;23;20408;-88
2022/05/07 11:26:21;;;;;;;4.83;3.77;;;19.50;83.60;;;;;;6261497;23;20451;-87
2022/05/07 11:28:51;;;;;;;6.33;4.13;;;19.40;83.50;;;;;;6270535;23;20512;-85
2022/05/07 11:31:31;;;;;;;5.60;3.87;;;19.60;84.90;;;;;;6268125;22;20423;-86
2022/05/07 11:34:06;;;;;;;6.03;3.77;;;19.80;83.50;;;;;;6265895;23;20404;-86
2022/05/07 11:36:34;;;;;;;4.87;3.50;;;19.90;82.10;;;;;;6261678;23;20458;-87
2022/05/07 11:39:05;;;;;;;4.77;3.10;;;20.00;80.20;;;;;;6261608;23;20879;-87
2022/05/07 11:41:33;;;;;;;6.00;3.20;;;20.10;77.20;;;;;;6259487;22;20466;-87
2022/05/07 11:46:58;;;;;;;4.63;3.20;;;19.90;74.80;;;;;;6259721;23;20439;-86
2022/05/07 11:49:30;;;;;;;4.60;2.77;;;19.80;77.00;;;;;;6259269;23;20395;-86
2022/05/07 11:52:10;;;;;;;7.20;3.00;;;19.90;76.20;;;;;;6262807;22;20440;-86
2022/05/07 11:54:48;;;;;;;6.27;3.53;;;20.00;75.40;;;;;;6259497;23;20400;-86
2022/05/07 11:57:16;;;;;;;6.83;3.50;;;20.10;76.40;;;;;;6261012;23;20404;-86
2022/05/07 11:59:44;;;;;;;7.93;3.43;;;20.10;76.20;;;;;;6258620;23;20426;-86
2022/05/07 12:02:13;;;;;;;4.80;3.13;;;20.20;75.70;;;;;;6261034;22;20411;-87
2022/05/07 12:04:40;;;;;;;4.73;2.97;;;20.20;73.80;;;;;;6260166;23;20408;-86
2022/05/07 12:07:10;;;;;;;5.63;3.03;;;20.10;73.70;;;;;;6261798;23;20469;-85
2022/05/07 12:09:37;;;;;;;4.73;2.90;;;20.30;73.90;;;;;;6265034;23;20396;-87
2022/05/07 12:12:05;;;;;;;4.83;2.90;;;20.30;71.70;;;;;;6262406;22;20482;-85
2022/05/07 12:14:34;;;;;;;8.03;3.57;;;20.40;71.30;;;;;;6261056;23;20424;-87
2022/05/07 12:19:54;;;;;;;8.33;3.20;;;20.30;71.80;;;;;;6267506;23;20391;-86
2022/05/07 12:30:36;;;;;;;6.70;3.67;;;20.20;69.20;;;;;;6269808;23;20384;-86
2022/05/07 12:33:04;;;;;;;7.50;3.67;;;20.40;69.50;;;;;;6268743;22;20496;-86
2022/05/07 12:35:35;;;;;;;6.60;3.30;;;20.50;70.80;;;;;;6268105;23;20397;-87
2022/05/07 12:38:02;;;;;;;4.30;3.07;;;20.60;73.40;;;;;;6264656;23;20420;-88
2022/05/07 12:40:30;;;;;;;6.73;3.57;;;20.60;72.80;;;;;;6270212;23;20435;-87
2022/05/07 12:42:58;;;;;;;4.43;3.17;;;20.50;73.70;;;;;;6270416;22;20452;-86
2022/05/07 12:45:26;;;;;;;5.90;4.33;;;20.50;74.00;;;;;;6270062;23;20452;-87
2022/05/07 12:47:53;;;;;;;6.80;3.67;;;20.50;74.40;;;;;;6272277;23;20412;-86
2022/05/07 12:50:20;;;;;;;5.47;3.20;;;20.60;74.20;;;;;;6272071;22;20468;-85
2022/05/07 12:52:49;;;;;;;6.77;3.57;;;20.60;74.60;;;;;;6240140;23;20519;-87
2022/05/07 12:55:17;;;;;;;6.50;3.83;;;20.70;75.00;;;;;;6267269;23;20408;-86
2022/05/07 12:57:52;;;;;;;6.00;3.87;;;20.90;74.80;;;;;;6265253;23;20417;-86
2022/05/07 13:00:22;;;;;;;9.20;3.80;;;21.00;73.30;;;;;;6266239;23;20408;-86
2022/05/07 13:02:53;;;;;;;5.13;3.23;;;21.20;73.00;;;;;;6265597;22;20420;-86
2022/05/07 13:05:24;;;;;;;5.70;3.67;;;21.20;71.90;;;;;;6264931;23;20425;-87
2022/05/07 13:07:55;;;;;;;4.77;3.00;;;21.10;72.00;;;;;;6267065;23;20468;-87
2022/05/07 13:10:28;;;;;;;5.20;3.00;;;21.20;72.10;;;;;;6266630;23;20725;-86
2022/05/07 13:13:02;;;;;;;6.93;3.13;;;20.90;70.50;;;;;;6265309;22;20440;-85
2022/05/07 13:15:30;;;;;;;4.90;3.10;;;20.90;71.20;;;;;;6264282;23;20950;-86
2022/05/07 13:17:59;;;;;;;5.60;3.63;;;20.80;71.10;;;;;;6264514;23;20401;-86
2022/05/07 13:20:27;;;;;;;5.93;3.10;;;21.00;71.20;;;;;;6265688;23;20457;-86
2022/05/07 13:22:56;;;;;;;6.30;3.10;;;21.20;71.50;;;;;;6265943;22;20482;-86
2022/05/07 13:25:25;;;;;;;11.20;9.50;;;21.10;70.00;;;;;;6287572;22;20442;-87
2022/05/07 13:27:52;;;;;;;8.70;5.67;;;21.20;71.50;;;;;;6286661;22;20411;-87
2022/05/07 13:30:20;;;;;;;5.70;3.23;;;21.30;71.30;;;;;;6286797;22;20407;-87
2022/05/07 13:32:48;;;;;;;5.80;2.83;;;21.40;71.10;;;;;;6293258;22;20541;-87